sensor_id;sensor_type;location;lat;lon;timestamp;P1;durP1;ratioP1;P2;durP2;ratioP2
65863;SDS011;52639;51.180;20.460;2023-07-31T00:02:23;9.23;;;4.85;;
65863;SDS011;52639;51.180;20.460;2023-07-31T00:06:26;6.80;;;5.10;;
65863;SDS011;52639;51.180;20.460;2023-07-31T00:10:29;8.82;;;5.10;;
65863;SDS011;52639;51.180;20.460;2023-07-31T00:14:33;8.32;;;4.88;;
65863;SDS011;52639;51.180;20.460;2023-07-31T00:18:36;11.70;;;5.50;;
65863;SDS011;52639;51.180;20.460;2023-07-31T00:22:39;6.57;;;5.00;;
65863;SDS011;52639;51.180;20.460;2023-07-31T00:26:42;7.65;;;5.53;;
65863;SDS011;52639;51.180;20.460;2023-07-31T00:30:46;8.68;;;6.00;;
65863;SDS011;52639;51.180;20.460;2023-07-31T00:34:49;8.30;;;5.90;;
65863;SDS011;52639;51.180;20.460;2023-07-31T00:38:51;9.88;;;5.85;;
65863;SDS011;52639;51.180;20.460;2023-07-31T00:42:54;9.10;;;5.65;;
65863;SDS011;52639;51.180;20.460;2023-07-31T00:46:58;9.73;;;5.10;;
65863;SDS011;52639;51.180;20.460;2023-07-31T00:51:01;8.50;;;5.43;;
65863;SDS011;52639;51.180;20.460;2023-07-31T00:55:05;10.45;;;6.10;;
65863;SDS011;52639;51.180;20.460;2023-07-31T00:59:08;10.90;;;7.60;;
65863;SDS011;52639;51.180;20.460;2023-07-31T01:03:12;11.55;;;6.85;;
65863;SDS011;52639;51.180;20.460;2023-07-31T01:07:17;9.85;;;6.88;;
65863;SDS011;52639;51.180;20.460;2023-07-31T01:11:28;9.98;;;6.82;;
65863;SDS011;52639;51.180;20.460;2023-07-31T01:15:32;12.75;;;7.35;;
65863;SDS011;52639;51.180;20.460;2023-07-31T01:19:36;11.30;;;6.82;;
65863;SDS011;52639;51.180;20.460;2023-07-31T01:23:48;14.38;;;8.77;;
65863;SDS011;52639;51.180;20.460;2023-07-31T01:28:05;12.15;;;7.30;;
65863;SDS011;52639;51.180;20.460;2023-07-31T01:32:09;14.38;;;7.70;;
65863;SDS011;52639;51.180;20.460;2023-07-31T01:36:14;11.73;;;7.57;;
65863;SDS011;52639;51.180;20.460;2023-07-31T01:40:17;11.88;;;7.68;;
65863;SDS011;52639;51.180;20.460;2023-07-31T01:44:21;10.60;;;6.30;;
65863;SDS011;52639;51.180;20.460;2023-07-31T01:48:24;9.20;;;5.80;;
65863;SDS011;52639;51.180;20.460;2023-07-31T01:52:27;10.93;;;6.03;;
65863;SDS011;52639;51.180;20.460;2023-07-31T01:56:30;9.07;;;6.45;;
65863;SDS011;52639;51.180;20.460;2023-07-31T02:00:35;12.90;;;7.07;;
65863;SDS011;52639;51.180;20.460;2023-07-31T02:04:38;9.88;;;5.78;;
65863;SDS011;52639;51.180;20.460;2023-07-31T02:08:41;8.50;;;6.47;;
65863;SDS011;52639;51.180;20.460;2023-07-31T02:12:44;12.98;;;6.50;;
65863;SDS011;52639;51.180;20.460;2023-07-31T02:16:48;14.02;;;7.53;;
65863;SDS011;52639;51.180;20.460;2023-07-31T02:20:51;10.77;;;7.88;;
65863;SDS011;52639;51.180;20.460;2023-07-31T02:24:54;14.77;;;8.77;;
65863;SDS011;52639;51.180;20.460;2023-07-31T02:28:57;12.18;;;7.75;;
65863;SDS011;52639;51.180;20.460;2023-07-31T02:33:02;12.07;;;8.63;;
65863;SDS011;52639;51.180;20.460;2023-07-31T02:37:06;10.45;;;6.88;;
65863;SDS011;52639;51.180;20.460;2023-07-31T02:41:08;9.68;;;6.60;;
65863;SDS011;52639;51.180;20.460;2023-07-31T02:45:11;10.35;;;6.65;;
65863;SDS011;52639;51.180;20.460;2023-07-31T02:49:16;8.30;;;5.78;;
65863;SDS011;52639;51.180;20.460;2023-07-31T02:53:19;12.45;;;7.05;;
65863;SDS011;52639;51.180;20.460;2023-07-31T02:57:22;8.98;;;6.70;;
65863;SDS011;52639;51.180;20.460;2023-07-31T03:01:25;11.70;;;6.53;;
65863;SDS011;52639;51.180;20.460;2023-07-31T03:05:29;8.73;;;6.75;;
65863;SDS011;52639;51.180;20.460;2023-07-31T03:09:32;10.68;;;7.03;;
65863;SDS011;52639;51.180;20.460;2023-07-31T03:13:35;9.07;;;6.95;;
65863;SDS011;52639;51.180;20.460;2023-07-31T03:44:39;12.80;;;6.85;;
65863;SDS011;52639;51.180;20.460;2023-07-31T03:48:42;10.65;;;6.93;;
65863;SDS011;52639;51.180;20.460;2023-07-31T03:52:45;10.75;;;6.28;;
65863;SDS011;52639;51.180;20.460;2023-07-31T03:56:48;10.90;;;5.78;;
65863;SDS011;52639;51.180;20.460;2023-07-31T04:00:52;9.02;;;6.10;;
65863;SDS011;52639;51.180;20.460;2023-07-31T04:04:55;8.50;;;5.72;;
65863;SDS011;52639;51.180;20.460;2023-07-31T04:08:58;9.95;;;6.00;;
65863;SDS011;52639;51.180;20.460;2023-07-31T04:13:01;7.03;;;5.07;;
65863;SDS011;52639;51.180;20.460;2023-07-31T04:17:05;11.80;;;5.72;;
65863;SDS011;52639;51.180;20.460;2023-07-31T04:21:08;8.95;;;5.50;;
65863;SDS011;52639;51.180;20.460;2023-07-31T04:25:11;8.65;;;5.40;;
65863;SDS011;52639;51.180;20.460;2023-07-31T04:29:14;10.52;;;6.70;;
65863;SDS011;52639;51.180;20.460;2023-07-31T04:33:18;12.55;;;6.07;;
65863;SDS011;52639;51.180;20.460;2023-07-31T04:37:21;9.35;;;5.60;;
65863;SDS011;52639;51.180;20.460;2023-07-31T04:41:24;11.75;;;6.15;;
65863;SDS011;52639;51.180;20.460;2023-07-31T04:45:27;7.90;;;5.93;;
65863;SDS011;52639;51.180;20.460;2023-07-31T04:49:31;13.10;;;5.18;;
65863;SDS011;52639;51.180;20.460;2023-07-31T04:53:34;7.15;;;5.10;;
65863;SDS011;52639;51.180;20.460;2023-07-31T04:57:37;10.43;;;4.88;;
65863;SDS011;52639;51.180;20.460;2023-07-31T05:01:39;6.40;;;4.70;;
65863;SDS011;52639;51.180;20.460;2023-07-31T05:05:44;8.10;;;5.07;;
65863;SDS011;52639;51.180;20.460;2023-07-31T05:09:46;8.40;;;4.60;;
65863;SDS011;52639;51.180;20.460;2023-07-31T05:13:49;6.10;;;4.20;;
65863;SDS011;52639;51.180;20.460;2023-07-31T05:17:52;5.72;;;3.90;;
65863;SDS011;52639;51.180;20.460;2023-07-31T05:21:56;8.60;;;3.90;;
65863;SDS011;52639;51.180;20.460;2023-07-31T05:26:02;6.45;;;3.95;;
65863;SDS011;52639;51.180;20.460;2023-07-31T05:30:06;6.47;;;3.50;;
65863;SDS011;52639;51.180;20.460;2023-07-31T05:34:10;6.13;;;3.17;;
65863;SDS011;52639;51.180;20.460;2023-07-31T05:38:14;6.03;;;3.22;;
65863;SDS011;52639;51.180;20.460;2023-07-31T05:42:16;5.72;;;3.13;;
65863;SDS011;52639;51.180;20.460;2023-07-31T05:46:19;6.55;;;3.10;;
65863;SDS011;52639;51.180;20.460;2023-07-31T05:50:23;6.25;;;3.25;;
65863;SDS011;52639;51.180;20.460;2023-07-31T05:54:31;6.20;;;3.10;;
65863;SDS011;52639;51.180;20.460;2023-07-31T05:58:34;8.50;;;3.40;;
65863;SDS011;52639;51.180;20.460;2023-07-31T06:02:37;5.90;;;3.03;;
65863;SDS011;52639;51.180;20.460;2023-07-31T06:06:40;4.53;;;3.00;;
65863;SDS011;52639;51.180;20.460;2023-07-31T06:10:44;9.13;;;3.65;;
65863;SDS011;52639;51.180;20.460;2023-07-31T06:14:48;5.57;;;3.50;;
65863;SDS011;52639;51.180;20.460;2023-07-31T06:18:51;4.78;;;2.85;;
65863;SDS011;52639;51.180;20.460;2023-07-31T06:22:54;8.68;;;3.38;;
65863;SDS011;52639;51.180;20.460;2023-07-31T06:26:58;4.40;;;2.83;;
65863;SDS011;52639;51.180;20.460;2023-07-31T06:31:01;4.70;;;2.95;;
65863;SDS011;52639;51.180;20.460;2023-07-31T06:35:04;6.25;;;2.80;;
65863;SDS011;52639;51.180;20.460;2023-07-31T06:39:08;6.25;;;2.70;;
65863;SDS011;52639;51.180;20.460;2023-07-31T06:43:12;4.00;;;2.40;;
65863;SDS011;52639;51.180;20.460;2023-07-31T06:47:16;4.07;;;2.70;;
65863;SDS011;52639;51.180;20.460;2023-07-31T06:51:29;5.15;;;2.40;;
65863;SDS011;52639;51.180;20.460;2023-07-31T06:55:32;4.97;;;2.38;;
65863;SDS011;52639;51.180;20.460;2023-07-31T06:59:37;4.90;;;2.22;;
65863;SDS011;52639;51.180;20.460;2023-07-31T07:03:40;3.92;;;2.28;;
65863;SDS011;52639;51.180;20.460;2023-07-31T07:07:43;3.55;;;2.40;;
65863;SDS011;52639;51.180;20.460;2023-07-31T07:11:46;2.95;;;2.10;;
65863;SDS011;52639;51.180;20.460;2023-07-31T07:15:50;4.60;;;2.33;;
65863;SDS011;52639;51.180;20.460;2023-07-31T07:19:54;5.57;;;2.35;;
65863;SDS011;52639;51.180;20.460;2023-07-31T07:23:57;3.30;;;2.03;;
65863;SDS011;52639;51.180;20.460;2023-07-31T07:28:00;3.75;;;2.20;;
65863;SDS011;52639;51.180;20.460;2023-07-31T07:32:05;7.38;;;2.80;;
65863;SDS011;52639;51.180;20.460;2023-07-31T07:36:09;4.97;;;2.22;;
65863;SDS011;52639;51.180;20.460;2023-07-31T07:40:13;5.78;;;2.20;;
65863;SDS011;52639;51.180;20.460;2023-07-31T07:44:16;3.13;;;2.00;;
65863;SDS011;52639;51.180;20.460;2023-07-31T07:48:21;5.75;;;2.13;;
65863;SDS011;52639;51.180;20.460;2023-07-31T07:52:26;3.55;;;1.92;;
65863;SDS011;52639;51.180;20.460;2023-07-31T07:56:29;6.25;;;2.40;;
65863;SDS011;52639;51.180;20.460;2023-07-31T08:00:32;4.22;;;2.05;;
65863;SDS011;52639;51.180;20.460;2023-07-31T08:04:36;3.63;;;2.35;;
65863;SDS011;52639;51.180;20.460;2023-07-31T08:08:39;2.88;;;2.10;;
65863;SDS011;52639;51.180;20.460;2023-07-31T08:12:42;4.07;;;2.28;;
65863;SDS011;52639;51.180;20.460;2023-07-31T08:16:45;6.30;;;2.50;;
65863;SDS011;52639;51.180;20.460;2023-07-31T08:20:53;4.00;;;2.40;;
65863;SDS011;52639;51.180;20.460;2023-07-31T08:24:57;3.05;;;2.28;;
65863;SDS011;52639;51.180;20.460;2023-07-31T08:29:00;5.55;;;2.90;;
65863;SDS011;52639;51.180;20.460;2023-07-31T08:33:03;4.45;;;2.63;;
65863;SDS011;52639;51.180;20.460;2023-07-31T08:37:07;5.15;;;2.67;;
65863;SDS011;52639;51.180;20.460;2023-07-31T08:41:12;6.38;;;3.35;;
65863;SDS011;52639;51.180;20.460;2023-07-31T08:45:18;5.30;;;2.55;;
65863;SDS011;52639;51.180;20.460;2023-07-31T08:49:21;4.55;;;2.50;;
65863;SDS011;52639;51.180;20.460;2023-07-31T08:53:27;4.57;;;2.45;;
65863;SDS011;52639;51.180;20.460;2023-07-31T08:57:30;6.00;;;2.67;;
65863;SDS011;52639;51.180;20.460;2023-07-31T09:01:35;5.57;;;2.60;;
65863;SDS011;52639;51.180;20.460;2023-07-31T09:05:43;5.88;;;2.90;;
65863;SDS011;52639;51.180;20.460;2023-07-31T09:09:49;4.63;;;2.50;;
65863;SDS011;52639;51.180;20.460;2023-07-31T09:13:56;8.23;;;2.53;;
65863;SDS011;52639;51.180;20.460;2023-07-31T09:18:03;5.10;;;2.92;;
65863;SDS011;52639;51.180;20.460;2023-07-31T09:22:07;4.40;;;2.50;;
65863;SDS011;52639;51.180;20.460;2023-07-31T09:26:11;4.05;;;2.50;;
65863;SDS011;52639;51.180;20.460;2023-07-31T09:30:30;7.88;;;2.85;;
65863;SDS011;52639;51.180;20.460;2023-07-31T09:34:37;6.18;;;2.50;;
65863;SDS011;52639;51.180;20.460;2023-07-31T09:38:40;3.95;;;2.40;;
65863;SDS011;52639;51.180;20.460;2023-07-31T09:42:44;5.85;;;2.40;;
65863;SDS011;52639;51.180;20.460;2023-07-31T09:46:48;3.35;;;2.20;;
65863;SDS011;52639;51.180;20.460;2023-07-31T09:50:51;4.97;;;2.22;;
65863;SDS011;52639;51.180;20.460;2023-07-31T09:54:54;4.43;;;2.28;;
65863;SDS011;52639;51.180;20.460;2023-07-31T09:58:58;4.70;;;2.40;;
65863;SDS011;52639;51.180;20.460;2023-07-31T10:03:04;5.25;;;2.42;;
65863;SDS011;52639;51.180;20.460;2023-07-31T10:07:08;4.85;;;2.10;;
65863;SDS011;52639;51.180;20.460;2023-07-31T10:11:11;3.25;;;1.90;;
65863;SDS011;52639;51.180;20.460;2023-07-31T10:15:17;4.47;;;2.33;;
65863;SDS011;52639;51.180;20.460;2023-07-31T10:19:20;4.45;;;2.25;;
65863;SDS011;52639;51.180;20.460;2023-07-31T10:23:24;4.70;;;2.47;;
65863;SDS011;52639;51.180;20.460;2023-07-31T10:27:28;6.07;;;2.33;;
65863;SDS011;52639;51.180;20.460;2023-07-31T10:31:32;5.38;;;2.25;;
65863;SDS011;52639;51.180;20.460;2023-07-31T10:35:36;2.92;;;1.98;;
65863;SDS011;52639;51.180;20.460;2023-07-31T10:39:39;5.18;;;2.10;;
65863;SDS011;52639;51.180;20.460;2023-07-31T10:43:42;3.33;;;2.13;;
65863;SDS011;52639;51.180;20.460;2023-07-31T10:47:46;5.43;;;1.88;;
65863;SDS011;52639;51.180;20.460;2023-07-31T10:51:49;6.10;;;2.03;;
65863;SDS011;52639;51.180;20.460;2023-07-31T10:55:56;2.83;;;1.67;;
65863;SDS011;52639;51.180;20.460;2023-07-31T11:04:24;3.30;;;2.10;;
65863;SDS011;52639;51.180;20.460;2023-07-31T11:08:28;3.95;;;1.88;;
65863;SDS011;52639;51.180;20.460;2023-07-31T11:12:32;4.03;;;1.83;;
65863;SDS011;52639;51.180;20.460;2023-07-31T11:16:36;4.43;;;1.95;;
65863;SDS011;52639;51.180;20.460;2023-07-31T11:20:41;6.68;;;2.10;;
65863;SDS011;52639;51.180;20.460;2023-07-31T11:24:44;4.40;;;1.90;;
65863;SDS011;52639;51.180;20.460;2023-07-31T11:28:47;4.65;;;2.10;;
65863;SDS011;52639;51.180;20.460;2023-07-31T11:32:51;4.47;;;2.13;;
65863;SDS011;52639;51.180;20.460;2023-07-31T11:36:56;6.80;;;2.17;;
65863;SDS011;52639;51.180;20.460;2023-07-31T11:41:00;5.40;;;1.80;;
65863;SDS011;52639;51.180;20.460;2023-07-31T11:45:04;6.10;;;2.10;;
65863;SDS011;52639;51.180;20.460;2023-07-31T11:49:07;6.53;;;2.00;;
65863;SDS011;52639;51.180;20.460;2023-07-31T11:53:12;4.05;;;1.80;;
65863;SDS011;52639;51.180;20.460;2023-07-31T11:57:16;5.97;;;1.92;;
65863;SDS011;52639;51.180;20.460;2023-07-31T12:01:20;4.63;;;1.70;;
65863;SDS011;52639;51.180;20.460;2023-07-31T12:05:24;4.38;;;1.80;;
65863;SDS011;52639;51.180;20.460;2023-07-31T12:09:29;3.65;;;1.70;;
65863;SDS011;52639;51.180;20.460;2023-07-31T12:13:32;3.33;;;1.70;;
65863;SDS011;52639;51.180;20.460;2023-07-31T12:17:36;2.22;;;1.60;;
65863;SDS011;52639;51.180;20.460;2023-07-31T12:21:39;3.35;;;1.70;;
65863;SDS011;52639;51.180;20.460;2023-07-31T12:25:43;5.32;;;1.77;;
65863;SDS011;52639;51.180;20.460;2023-07-31T12:29:47;2.53;;;1.58;;
65863;SDS011;52639;51.180;20.460;2023-07-31T12:33:50;5.07;;;1.70;;
65863;SDS011;52639;51.180;20.460;2023-07-31T12:37:53;3.55;;;1.75;;
65863;SDS011;52639;51.180;20.460;2023-07-31T12:41:58;4.68;;;2.03;;
65863;SDS011;52639;51.180;20.460;2023-07-31T12:46:01;3.72;;;1.80;;
65863;SDS011;52639;51.180;20.460;2023-07-31T12:50:04;3.75;;;1.75;;
65863;SDS011;52639;51.180;20.460;2023-07-31T12:54:09;3.38;;;1.70;;
65863;SDS011;52639;51.180;20.460;2023-07-31T12:58:13;3.17;;;1.73;;
65863;SDS011;52639;51.180;20.460;2023-07-31T13:02:16;4.60;;;1.92;;
65863;SDS011;52639;51.180;20.460;2023-07-31T13:06:19;3.95;;;1.80;;
65863;SDS011;52639;51.180;20.460;2023-07-31T13:10:23;2.58;;;1.70;;
65863;SDS011;52639;51.180;20.460;2023-07-31T13:14:29;4.05;;;1.77;;
65863;SDS011;52639;51.180;20.460;2023-07-31T13:18:32;3.50;;;1.48;;
65863;SDS011;52639;51.180;20.460;2023-07-31T13:22:36;4.32;;;1.70;;
65863;SDS011;52639;51.180;20.460;2023-07-31T13:26:40;2.80;;;1.60;;
65863;SDS011;52639;51.180;20.460;2023-07-31T13:30:45;3.42;;;1.75;;
65863;SDS011;52639;51.180;20.460;2023-07-31T13:34:48;2.70;;;1.48;;
65863;SDS011;52639;51.180;20.460;2023-07-31T13:38:53;2.75;;;1.40;;
65863;SDS011;52639;51.180;20.460;2023-07-31T13:42:56;3.40;;;1.50;;
65863;SDS011;52639;51.180;20.460;2023-07-31T13:47:01;5.18;;;1.83;;
65863;SDS011;52639;51.180;20.460;2023-07-31T14:02:22;4.72;;;1.70;;
65863;SDS011;52639;51.180;20.460;2023-07-31T14:06:25;5.10;;;1.80;;
65863;SDS011;52639;51.180;20.460;2023-07-31T14:10:28;3.78;;;1.80;;
65863;SDS011;52639;51.180;20.460;2023-07-31T14:14:31;3.95;;;1.90;;
65863;SDS011;52639;51.180;20.460;2023-07-31T14:18:36;3.47;;;1.95;;
65863;SDS011;52639;51.180;20.460;2023-07-31T14:22:39;4.20;;;1.70;;
65863;SDS011;52639;51.180;20.460;2023-07-31T14:26:42;4.63;;;1.80;;
65863;SDS011;52639;51.180;20.460;2023-07-31T14:30:45;4.60;;;2.00;;
65863;SDS011;52639;51.180;20.460;2023-07-31T14:34:50;5.85;;;1.80;;
65863;SDS011;52639;51.180;20.460;2023-07-31T14:38:53;2.78;;;1.80;;
65863;SDS011;52639;51.180;20.460;2023-07-31T14:42:56;4.13;;;1.98;;
65863;SDS011;52639;51.180;20.460;2023-07-31T14:46:59;3.28;;;2.08;;
65863;SDS011;52639;51.180;20.460;2023-07-31T14:51:04;3.75;;;2.10;;
65863;SDS011;52639;51.180;20.460;2023-07-31T14:55:07;4.03;;;2.00;;
65863;SDS011;52639;51.180;20.460;2023-07-31T14:59:11;3.33;;;1.73;;
65863;SDS011;52639;51.180;20.460;2023-07-31T15:03:14;3.08;;;1.80;;
65863;SDS011;52639;51.180;20.460;2023-07-31T15:07:19;2.08;;;1.45;;
65863;SDS011;52639;51.180;20.460;2023-07-31T15:11:22;4.97;;;2.05;;
65863;SDS011;52639;51.180;20.460;2023-07-31T15:15:25;1.77;;;1.65;;
65863;SDS011;52639;51.180;20.460;2023-07-31T15:19:29;5.05;;;1.75;;
65863;SDS011;52639;51.180;20.460;2023-07-31T15:23:37;4.25;;;1.90;;
65863;SDS011;52639;51.180;20.460;2023-07-31T15:27:40;3.33;;;1.80;;
65863;SDS011;52639;51.180;20.460;2023-07-31T15:31:43;4.45;;;1.95;;
65863;SDS011;52639;51.180;20.460;2023-07-31T15:35:47;6.13;;;1.80;;
65863;SDS011;52639;51.180;20.460;2023-07-31T15:39:51;4.53;;;1.85;;
65863;SDS011;52639;51.180;20.460;2023-07-31T15:43:54;5.25;;;1.90;;
65863;SDS011;52639;51.180;20.460;2023-07-31T15:47:58;4.00;;;1.95;;
65863;SDS011;52639;51.180;20.460;2023-07-31T15:52:01;5.80;;;1.90;;
65863;SDS011;52639;51.180;20.460;2023-07-31T15:56:05;6.57;;;2.10;;
65863;SDS011;52639;51.180;20.460;2023-07-31T16:00:09;4.00;;;2.45;;
65863;SDS011;52639;51.180;20.460;2023-07-31T16:04:12;4.30;;;2.40;;
65863;SDS011;52639;51.180;20.460;2023-07-31T16:08:16;4.78;;;2.15;;
65863;SDS011;52639;51.180;20.460;2023-07-31T16:12:20;6.38;;;2.10;;
65863;SDS011;52639;51.180;20.460;2023-07-31T16:16:23;7.35;;;2.30;;
65863;SDS011;52639;51.180;20.460;2023-07-31T16:20:28;3.33;;;2.10;;
65863;SDS011;52639;51.180;20.460;2023-07-31T16:24:32;5.57;;;2.38;;
65863;SDS011;52639;51.180;20.460;2023-07-31T16:28:37;5.20;;;2.30;;
65863;SDS011;52639;51.180;20.460;2023-07-31T16:32:40;4.45;;;1.95;;
65863;SDS011;52639;51.180;20.460;2023-07-31T16:36:43;3.33;;;2.10;;
65863;SDS011;52639;51.180;20.460;2023-07-31T16:40:46;6.70;;;2.40;;
65863;SDS011;52639;51.180;20.460;2023-07-31T16:44:52;5.72;;;1.88;;
65863;SDS011;52639;51.180;20.460;2023-07-31T16:48:54;4.00;;;2.00;;
65863;SDS011;52639;51.180;20.460;2023-07-31T16:52:57;4.18;;;1.75;;
65863;SDS011;52639;51.180;20.460;2023-07-31T16:57:00;8.48;;;2.05;;
65863;SDS011;52639;51.180;20.460;2023-07-31T17:01:05;3.13;;;2.03;;
65863;SDS011;52639;51.180;20.460;2023-07-31T17:05:08;6.32;;;2.25;;
65863;SDS011;52639;51.180;20.460;2023-07-31T17:09:11;7.18;;;2.53;;
65863;SDS011;52639;51.180;20.460;2023-07-31T17:13:14;4.40;;;1.90;;
65863;SDS011;52639;51.180;20.460;2023-07-31T17:17:18;6.20;;;2.15;;
65863;SDS011;52639;51.180;20.460;2023-07-31T17:21:24;5.88;;;2.10;;
65863;SDS011;52639;51.180;20.460;2023-07-31T17:25:28;3.65;;;2.08;;
65863;SDS011;52639;51.180;20.460;2023-07-31T17:29:32;5.88;;;2.47;;
65863;SDS011;52639;51.180;20.460;2023-07-31T17:33:37;8.70;;;2.63;;
65863;SDS011;52639;51.180;20.460;2023-07-31T17:37:40;3.92;;;2.05;;
65863;SDS011;52639;51.180;20.460;2023-07-31T17:41:44;3.55;;;2.10;;
65863;SDS011;52639;51.180;20.460;2023-07-31T17:45:48;6.07;;;2.50;;
65863;SDS011;52639;51.180;20.460;2023-07-31T17:49:54;4.05;;;2.58;;
65863;SDS011;52639;51.180;20.460;2023-07-31T17:53:58;5.43;;;2.40;;
65863;SDS011;52639;51.180;20.460;2023-07-31T17:58:02;6.63;;;2.28;;
65863;SDS011;52639;51.180;20.460;2023-07-31T18:02:05;5.55;;;2.60;;
65863;SDS011;52639;51.180;20.460;2023-07-31T18:06:14;5.57;;;2.40;;
65863;SDS011;52639;51.180;20.460;2023-07-31T18:10:19;5.00;;;2.53;;
65863;SDS011;52639;51.180;20.460;2023-07-31T18:14:23;7.45;;;2.55;;
65863;SDS011;52639;51.180;20.460;2023-07-31T18:18:27;4.80;;;2.25;;
65863;SDS011;52639;51.180;20.460;2023-07-31T18:22:34;8.38;;;2.95;;
65863;SDS011;52639;51.180;20.460;2023-07-31T18:26:39;5.35;;;2.88;;
65863;SDS011;52639;51.180;20.460;2023-07-31T18:30:43;4.38;;;2.63;;
65863;SDS011;52639;51.180;20.460;2023-07-31T18:34:48;4.65;;;2.70;;
65863;SDS011;52639;51.180;20.460;2023-07-31T18:38:54;18.63;;;7.30;;
65863;SDS011;52639;51.180;20.460;2023-07-31T18:42:58;14.25;;;6.35;;
65863;SDS011;52639;51.180;20.460;2023-07-31T18:47:03;10.02;;;4.03;;
65863;SDS011;52639;51.180;20.460;2023-07-31T18:51:07;12.30;;;4.97;;
65863;SDS011;52639;51.180;20.460;2023-07-31T18:55:12;8.65;;;4.38;;
65863;SDS011;52639;51.180;20.460;2023-07-31T18:59:16;5.50;;;3.10;;
65863;SDS011;52639;51.180;20.460;2023-07-31T19:03:21;8.70;;;3.47;;
65863;SDS011;52639;51.180;20.460;2023-07-31T19:07:26;7.45;;;3.72;;
65863;SDS011;52639;51.180;20.460;2023-07-31T19:11:32;8.40;;;3.42;;
65863;SDS011;52639;51.180;20.460;2023-07-31T19:15:36;8.93;;;3.78;;
65863;SDS011;52639;51.180;20.460;2023-07-31T19:19:39;8.75;;;3.58;;
65863;SDS011;52639;51.180;20.460;2023-07-31T19:23:45;7.97;;;3.40;;
65863;SDS011;52639;51.180;20.460;2023-07-31T19:27:51;6.90;;;3.30;;
65863;SDS011;52639;51.180;20.460;2023-07-31T19:31:55;5.72;;;3.40;;
65863;SDS011;52639;51.180;20.460;2023-07-31T19:35:59;8.32;;;4.30;;
65863;SDS011;52639;51.180;20.460;2023-07-31T19:40:04;8.38;;;4.00;;
65863;SDS011;52639;51.180;20.460;2023-07-31T19:44:10;7.38;;;4.18;;
65863;SDS011;52639;51.180;20.460;2023-07-31T19:48:13;8.57;;;4.13;;
65863;SDS011;52639;51.180;20.460;2023-07-31T19:52:18;7.85;;;4.03;;
65863;SDS011;52639;51.180;20.460;2023-07-31T19:56:22;7.85;;;3.70;;
65863;SDS011;52639;51.180;20.460;2023-07-31T20:00:27;14.07;;;7.82;;
65863;SDS011;52639;51.180;20.460;2023-07-31T20:04:31;12.32;;;6.18;;
65863;SDS011;52639;51.180;20.460;2023-07-31T20:08:34;9.40;;;5.32;;
65863;SDS011;52639;51.180;20.460;2023-07-31T20:12:38;8.98;;;5.13;;
65863;SDS011;52639;51.180;20.460;2023-07-31T20:16:44;9.15;;;3.90;;
65863;SDS011;52639;51.180;20.460;2023-07-31T20:20:48;7.60;;;3.55;;
65863;SDS011;52639;51.180;20.460;2023-07-31T20:24:52;9.40;;;4.50;;
65863;SDS011;52639;51.180;20.460;2023-07-31T20:28:56;9.05;;;3.80;;
65863;SDS011;52639;51.180;20.460;2023-07-31T20:33:02;6.53;;;3.70;;
65863;SDS011;52639;51.180;20.460;2023-07-31T20:37:05;9.43;;;4.18;;
65863;SDS011;52639;51.180;20.460;2023-07-31T20:41:09;14.35;;;7.05;;
65863;SDS011;52639;51.180;20.460;2023-07-31T20:45:14;16.13;;;6.97;;
65863;SDS011;52639;51.180;20.460;2023-07-31T20:49:19;11.88;;;6.20;;
65863;SDS011;52639;51.180;20.460;2023-07-31T20:53:22;10.40;;;5.10;;
65863;SDS011;52639;51.180;20.460;2023-07-31T20:57:26;10.00;;;4.60;;
65863;SDS011;52639;51.180;20.460;2023-07-31T21:01:29;11.15;;;4.47;;
65863;SDS011;52639;51.180;20.460;2023-07-31T21:05:34;10.13;;;4.22;;
65863;SDS011;52639;51.180;20.460;2023-07-31T21:09:37;11.40;;;5.38;;
65863;SDS011;52639;51.180;20.460;2023-07-31T21:13:39;9.00;;;5.00;;
65863;SDS011;52639;51.180;20.460;2023-07-31T21:17:43;11.60;;;6.20;;
65863;SDS011;52639;51.180;20.460;2023-07-31T21:21:47;9.65;;;5.10;;
65863;SDS011;52639;51.180;20.460;2023-07-31T21:25:51;10.43;;;4.57;;
65863;SDS011;52639;51.180;20.460;2023-07-31T21:29:54;7.70;;;4.05;;
65863;SDS011;52639;51.180;20.460;2023-07-31T21:33:58;10.40;;;4.50;;
65863;SDS011;52639;51.180;20.460;2023-07-31T21:38:03;9.13;;;4.38;;
65863;SDS011;52639;51.180;20.460;2023-07-31T21:42:06;7.28;;;4.55;;
65863;SDS011;52639;51.180;20.460;2023-07-31T21:46:10;8.32;;;4.82;;
65863;SDS011;52639;51.180;20.460;2023-07-31T21:50:13;8.52;;;4.88;;
65863;SDS011;52639;51.180;20.460;2023-07-31T21:54:17;7.80;;;4.32;;
65863;SDS011;52639;51.180;20.460;2023-07-31T21:58:20;8.05;;;4.70;;
65863;SDS011;52639;51.180;20.460;2023-07-31T22:02:23;9.88;;;4.78;;
65863;SDS011;52639;51.180;20.460;2023-07-31T22:06:26;8.10;;;4.68;;
65863;SDS011;52639;51.180;20.460;2023-07-31T22:10:30;8.02;;;4.68;;
65863;SDS011;52639;51.180;20.460;2023-07-31T22:14:33;9.35;;;5.25;;
65863;SDS011;52639;51.180;20.460;2023-07-31T22:18:35;7.60;;;4.22;;
65863;SDS011;52639;51.180;20.460;2023-07-31T22:22:38;9.20;;;4.78;;
65863;SDS011;52639;51.180;20.460;2023-07-31T22:26:43;9.32;;;4.60;;
65863;SDS011;52639;51.180;20.460;2023-07-31T22:30:46;7.80;;;4.35;;
65863;SDS011;52639;51.180;20.460;2023-07-31T22:34:49;8.73;;;4.65;;
65863;SDS011;52639;51.180;20.460;2023-07-31T22:38:52;9.50;;;4.88;;
65863;SDS011;52639;51.180;20.460;2023-07-31T22:42:56;11.65;;;4.97;;
65863;SDS011;52639;51.180;20.460;2023-07-31T22:47:00;7.97;;;4.68;;
65863;SDS011;52639;51.180;20.460;2023-07-31T22:51:04;7.72;;;4.90;;
65863;SDS011;52639;51.180;20.460;2023-07-31T22:55:08;7.60;;;4.70;;
65863;SDS011;52639;51.180;20.460;2023-07-31T22:59:12;11.18;;;5.38;;
65863;SDS011;52639;51.180;20.460;2023-07-31T23:03:15;8.70;;;4.65;;
65863;SDS011;52639;51.180;20.460;2023-07-31T23:07:18;6.53;;;4.63;;
65863;SDS011;52639;51.180;20.460;2023-07-31T23:11:21;10.00;;;4.70;;
65863;SDS011;52639;51.180;20.460;2023-07-31T23:15:25;11.02;;;4.95;;
65863;SDS011;52639;51.180;20.460;2023-07-31T23:19:28;13.27;;;5.25;;
65863;SDS011;52639;51.180;20.460;2023-07-31T23:23:32;8.25;;;4.90;;
65863;SDS011;52639;51.180;20.460;2023-07-31T23:27:35;8.13;;;4.80;;
65863;SDS011;52639;51.180;20.460;2023-07-31T23:31:41;8.45;;;5.05;;
65863;SDS011;52639;51.180;20.460;2023-07-31T23:35:45;11.68;;;5.10;;
65863;SDS011;52639;51.180;20.460;2023-07-31T23:39:48;8.00;;;4.75;;
65863;SDS011;52639;51.180;20.460;2023-07-31T23:43:51;9.88;;;4.95;;
65863;SDS011;52639;51.180;20.460;2023-07-31T23:47:56;8.93;;;4.93;;
65863;SDS011;52639;51.180;20.460;2023-07-31T23:52:01;6.82;;;4.38;;
65863;SDS011;52639;51.180;20.460;2023-07-31T23:56:04;8.88;;;4.88;;
